MSC Bettina — HPFG — position and weather

sailwx.info

Track history (hours):
 
Tides and Currents Weather Stations Pressure Air Temp Water Temp Dewpoint Dewpoint Depression Visibility Wind Speed Wind Dir Waves Ship Positions

MSC Bettina

Last reported at 2015-Mar-27 23:32 UTC. Time now 2015-Mar-28 00:40 UTC.
Position N 30°37' E 122°04'.

Length 366 m; draft 11.3 m.

Type: Ship (hazmat cat A). MMSI: 352361000.

Date/timePositionNaut miles runAvg speedWind from/ knotsBaromVisibWave heightAir tempDewpointWater temp
2015-Mar-27 23:32N 30°37' E 122°04'0 0.0
2015-Mar-27 22:05N 30°37' E 122°04'1 2.4
2015-Mar-27 21:33N 30°36' E 122°05'1110.6
2015-Mar-27 20:32N 30°33' E 122°16'7 6.7
2015-Mar-27 19:33N 30°32' E 122°24'2612.4
2015-Mar-27 17:29N 30°23' E 122°52'  
2015-Mar-23 06:10N 01°19' E 104°22'1015.8
2015-Mar-23 05:32N 01°16' E 104°13'1515.6
2015-Mar-23 04:33N 01°14' E 103°57'10 9.8
2015-Mar-23 03:33N 01°13' E 103°48'4 3.4
2015-Mar-23 02:22N 01°17' E 103°45'0 0.0
2015-Mar-23 01:28N 01°17' E 103°45'0 0.0
2015-Mar-23 00:25N 01°17' E 103°45'0 0.0
2015-Mar-22 23:13N 01°17' E 103°45'0 0.0
2015-Mar-22 22:04N 01°17' E 103°45'0 0.0
2015-Mar-22 21:28N 01°17' E 103°45'0 0.0
2015-Mar-22 14:31N 01°17' E 103°45'0 0.0
2015-Mar-22 13:20N 01°17' E 103°45'0 0.0
2015-Mar-22 12:32N 01°17' E 103°45'0 0.0
2015-Mar-22 11:26N 01°17' E 103°45'0 0.0
2015-Mar-22 10:24N 01°17' E 103°45'0 0.0
2015-Mar-22 09:32N 01°17' E 103°45'0 0.0
2015-Mar-22 08:29N 01°17' E 103°45'0 0.0
2015-Mar-22 07:23N 01°17' E 103°45'0 0.0
2015-Mar-22 06:29N 01°17' E 103°45'0 0.0
2015-Mar-22 04:32N 01°17' E 103°45'0 0.0
2015-Mar-22 03:32N 01°17' E 103°45'0 0.0
2015-Mar-22 02:32N 01°17' E 103°45'0 0.0
2015-Mar-22 01:26N 01°17' E 103°45'0 0.0
2015-Mar-22 00:23N 01°17' E 103°45'0 0.0
2015-Mar-21 23:26N 01°17' E 103°45'0 0.0
2015-Mar-21 21:32N 01°17' E 103°45'0 0.0
2015-Mar-21 19:32N 01°17' E 103°45'0 0.0
2015-Mar-21 18:17N 01°17' E 103°45'0 0.0
2015-Mar-21 16:23N 01°17' E 103°45'0 0.0
2015-Mar-21 15:20N 01°17' E 103°45'0 0.0
2015-Mar-21 14:20N 01°17' E 103°45'0 0.0
2015-Mar-21 13:29N 01°17' E 103°45'0 0.0
2015-Mar-21 10:20N 01°17' E 103°45'0 0.0
2015-Mar-21 09:05N 01°17' E 103°45'0 0.1
2015-Mar-21 07:28N 01°16' E 103°45'2 1.6
2015-Mar-21 06:32N 01°15' E 103°46'8 6.9
2015-Mar-21 05:19N 01°12' E 103°38'47 8.1
2015-Mar-20 23:33N 01°33' E 102°56'7 6.7
2015-Mar-20 22:33N 01°36' E 102°50'11 5.7
2015-Mar-20 20:34N 01°41' E 102°40'5 5.2
2015-Mar-20 19:34N 01°44' E 102°36'5 5.3
2015-Mar-20 18:33N 01°46' E 102°31'6 5.5
2015-Mar-20 17:34N 01°48' E 102°26'31 7.2
2015-Mar-20 13:13N 02°06' E 102°00'6 8.9
2015-Mar-20 12:32N 02°10' E 101°56'11 9.7
2015-Mar-20 11:22N 02°17' E 101°47'  
Track history (hours):
 
Tides and Currents Weather Stations Pressure Air Temp Water Temp Dewpoint Dewpoint Depression Visibility Wind Speed Wind Dir Waves Ship Positions

MSC Bettina

Last reported at 2015-Mar-27 23:32 UTC. Time now 2015-Mar-28 00:40 UTC.
Position N 30°37' E 122°04'.

Length 366 m; draft 11.3 m.

Type: Ship (hazmat cat A). MMSI: 352361000.

Date/timePositionNaut miles runAvg speedWind from/ knotsBaromVisibWave heightAir tempDewpointWater temp
2015-Mar-27 23:32N 30°37' E 122°04'0 0.0
2015-Mar-27 22:05N 30°37' E 122°04'1 2.4
2015-Mar-27 21:33N 30°36' E 122°05'1110.6
2015-Mar-27 20:32N 30°33' E 122°16'7 6.7
2015-Mar-27 19:33N 30°32' E 122°24'2612.4
2015-Mar-27 17:29N 30°23' E 122°52'  
2015-Mar-23 06:10N 01°19' E 104°22'1015.8
2015-Mar-23 05:32N 01°16' E 104°13'1515.6
2015-Mar-23 04:33N 01°14' E 103°57'10 9.8
2015-Mar-23 03:33N 01°13' E 103°48'4 3.4
2015-Mar-23 02:22N 01°17' E 103°45'0 0.0
2015-Mar-23 01:28N 01°17' E 103°45'0 0.0
2015-Mar-23 00:25N 01°17' E 103°45'0 0.0
2015-Mar-22 23:13N 01°17' E 103°45'0 0.0
2015-Mar-22 22:04N 01°17' E 103°45'0 0.0
2015-Mar-22 21:28N 01°17' E 103°45'0 0.0
2015-Mar-22 14:31N 01°17' E 103°45'0 0.0
2015-Mar-22 13:20N 01°17' E 103°45'0 0.0
2015-Mar-22 12:32N 01°17' E 103°45'0 0.0
2015-Mar-22 11:26N 01°17' E 103°45'0 0.0
2015-Mar-22 10:24N 01°17' E 103°45'0 0.0
2015-Mar-22 09:32N 01°17' E 103°45'0 0.0
2015-Mar-22 08:29N 01°17' E 103°45'0 0.0
2015-Mar-22 07:23N 01°17' E 103°45'0 0.0
2015-Mar-22 06:29N 01°17' E 103°45'0 0.0
2015-Mar-22 04:32N 01°17' E 103°45'0 0.0
2015-Mar-22 03:32N 01°17' E 103°45'0 0.0
2015-Mar-22 02:32N 01°17' E 103°45'0 0.0
2015-Mar-22 01:26N 01°17' E 103°45'0 0.0
2015-Mar-22 00:23N 01°17' E 103°45'0 0.0
2015-Mar-21 23:26N 01°17' E 103°45'0 0.0
2015-Mar-21 21:32N 01°17' E 103°45'0 0.0
2015-Mar-21 19:32N 01°17' E 103°45'0 0.0
2015-Mar-21 18:17N 01°17' E 103°45'0 0.0
2015-Mar-21 16:23N 01°17' E 103°45'0 0.0
2015-Mar-21 15:20N 01°17' E 103°45'0 0.0
2015-Mar-21 14:20N 01°17' E 103°45'0 0.0
2015-Mar-21 13:29N 01°17' E 103°45'0 0.0
2015-Mar-21 10:20N 01°17' E 103°45'0 0.0
2015-Mar-21 09:05N 01°17' E 103°45'0 0.1
2015-Mar-21 07:28N 01°16' E 103°45'2 1.6
2015-Mar-21 06:32N 01°15' E 103°46'8 6.9
2015-Mar-21 05:19N 01°12' E 103°38'47 8.1
2015-Mar-20 23:33N 01°33' E 102°56'7 6.7
2015-Mar-20 22:33N 01°36' E 102°50'11 5.7
2015-Mar-20 20:34N 01°41' E 102°40'5 5.2
2015-Mar-20 19:34N 01°44' E 102°36'5 5.3
2015-Mar-20 18:33N 01°46' E 102°31'6 5.5
2015-Mar-20 17:34N 01°48' E 102°26'31 7.2
2015-Mar-20 13:13N 02°06' E 102°00'6 8.9
2015-Mar-20 12:32N 02°10' E 101°56'11 9.7
2015-Mar-20 11:22N 02°17' E 101°47'  

Dump ship's entire track history